Time;durP1;ratioP1;P1;durP2;ratioP2;P2;SDS_P1;SDS_P2;PMS_P1;PMS_P2;Temp;Humidity;BMP_temperature;BMP_pressure;BME280_temperature;BME280_humidity;BME280_pressure;Samples;Min_cycle;Max_cycle;Signal;HPM_P1;HPM_P2
2023/06/28 00:01:05;;;;;;;17.50;7.40;;;;;;;20.12;85.70;94637.03;5012449;28;20180;-82
2023/06/28 00:03:30;;;;;;;13.63;7.57;;;;;;;20.09;85.95;94631.44;5011719;28;20195;-82
2023/06/28 00:05:56;;;;;;;11.68;7.68;;;;;;;20.00;85.71;94623.19;5011407;28;20712;-81
2023/06/28 00:08:22;;;;;;;15.43;7.40;;;;;;;19.75;86.06;94602.72;5011966;28;20266;-81
2023/06/28 00:10:50;;;;;;;13.38;7.82;;;;;;;19.74;86.45;94600.31;5012155;28;20176;-81
2023/06/28 00:13:15;;;;;;;10.10;7.43;;;;;;;19.77;86.73;94611.28;5011764;28;20172;-81
2023/06/28 00:15:40;;;;;;;14.18;7.55;;;;;;;19.84;86.45;94625.13;5011935;28;20179;-81
2023/06/28 00:18:08;;;;;;;11.57;6.63;;;;;;;19.85;86.66;94624.06;5012496;28;20157;-81
2023/06/28 00:20:34;;;;;;;11.05;7.20;;;;;;;19.67;86.66;94591.81;5012049;28;20184;-81
2023/06/28 00:22:59;;;;;;;16.00;8.52;;;;;;;19.91;86.31;94624.81;5011897;28;20168;-81
2023/06/28 00:25:25;;;;;;;12.85;7.68;;;;;;;19.91;86.14;94622.16;5011772;28;20557;-81
2023/06/28 00:27:50;;;;;;;12.93;7.07;;;;;;;19.91;86.45;94622.16;5011732;28;20243;-81
2023/06/28 00:30:16;;;;;;;12.70;8.00;;;;;;;19.87;86.44;94629.94;5012482;28;20640;-81
2023/06/28 00:32:42;;;;;;;13.13;7.65;;;;;;;19.80;85.97;94617.94;5011745;28;20172;-81
2023/06/28 00:35:07;;;;;;;15.07;7.43;;;;;;;19.87;86.26;94627.28;5011688;28;20169;-81
2023/06/28 00:37:33;;;;;;;12.50;8.50;;;;;;;19.87;86.03;94634.47;5011903;28;20180;-81
2023/06/28 00:40:05;;;;;;;14.80;7.97;;;;;;;19.82;86.63;94637.97;5011907;28;20211;-81
2023/06/28 00:42:30;;;;;;;14.20;6.65;;;;;;;19.72;86.43;94621.97;5012163;28;20283;-81
2023/06/28 00:44:56;;;;;;;10.30;7.95;;;;;;;19.78;86.47;94633.44;5012110;28;20603;-81
2023/06/28 00:47:22;;;;;;;15.27;8.23;;;;;;;19.73;86.77;94628.91;5011360;28;20710;-81
2023/06/28 00:49:50;;;;;;;20.45;8.75;;;;;;;19.69;86.46;94633.22;5011732;28;20183;-81
2023/06/28 00:52:16;;;;;;;12.25;7.57;;;;;;;19.44;86.62;94591.34;5026804;28;20615;-81
2023/06/28 00:54:41;;;;;;;15.52;7.15;;;;;;;19.44;87.04;94595.88;5011798;28;20219;-81
2023/06/28 00:57:08;;;;;;;11.77;7.20;;;;;;;19.34;87.20;94580.69;5011523;28;20184;-81
2023/06/28 00:59:35;;;;;;;14.20;8.50;;;;;;;19.59;87.38;94627.91;5011286;28;20228;-81
2023/06/28 01:02:02;;;;;;;11.27;7.03;;;;;;;19.53;87.74;94623.66;5009196;28;20183;-81
2023/06/28 01:04:27;;;;;;;11.27;7.45;;;;;;;19.59;87.78;94642.06;5009834;28;20248;-81
2023/06/28 01:06:59;;;;;;;11.30;7.18;;;;;;;19.59;87.68;94639.38;5015437;28;20339;-81
2023/06/28 01:09:27;;;;;;;11.07;7.30;;;;;;;19.29;86.95;94596.72;5015995;28;20215;-81
2023/06/28 01:11:54;;;;;;;12.20;6.32;;;;;;;19.47;87.11;94638.03;5015581;28;20669;-81
2023/06/28 01:14:22;;;;;;;8.18;6.07;;;;;;;19.09;86.50;94576.22;5015855;28;20511;-81
2023/06/28 01:16:54;;;;;;;12.15;6.60;;;;;;;19.44;87.12;94639.41;5015633;28;20168;-81
2023/06/28 01:19:22;;;;;;;9.90;6.13;;;;;;;19.45;86.59;94634.88;5015734;28;20605;-81
2023/06/28 01:21:51;;;;;;;11.77;6.57;;;;;;;19.43;86.35;94635.13;5015929;28;20512;-81
2023/06/28 01:24:16;;;;;;;7.78;6.10;;;;;;;19.37;86.39;94636.19;5015385;28;20195;-81
2023/06/28 01:26:43;;;;;;;11.52;7.38;;;;;;;19.25;86.65;94633.03;5015688;28;20188;-81
2023/06/28 01:29:08;;;;;;;11.45;5.93;;;;;;;19.20;87.28;94633.81;5015583;28;20180;-81
2023/06/28 01:31:36;;;;;;;10.60;6.78;;;;;;;19.14;87.48;94634.13;5014980;28;20184;-81
2023/06/28 01:34:01;;;;;;;11.85;5.80;;;;;;;18.95;87.76;94611.72;5014704;28;20196;-81
2023/06/28 01:36:27;;;;;;;11.75;5.95;;;;;;;18.85;88.03;94617.88;5014797;28;20624;-81
2023/06/28 01:38:54;;;;;;;9.02;5.80;;;;;;;19.01;88.99;94638.16;5015508;28;20179;-81
2023/06/28 01:41:21;;;;;;;12.15;5.93;;;;;;;18.92;89.02;94644.28;5014702;28;20175;-82
2023/06/28 01:43:46;;;;;;;9.32;6.07;;;;;;;18.87;88.86;94644.28;5014668;28;20287;-82
2023/06/28 01:46:12;;;;;;;10.13;6.10;;;;;;;18.89;88.81;94642.94;5014404;28;20663;-82
2023/06/28 01:48:37;;;;;;;11.23;6.68;;;;;;;18.75;88.86;94612.56;5014509;28;20586;-81
2023/06/28 01:51:04;;;;;;;16.38;7.30;;;;;;;18.73;88.78;94612.00;5014874;28;20268;-82
2023/06/28 01:53:29;;;;;;;8.90;7.35;;;;;;;18.88;89.07;94637.88;5014812;28;20161;-82
2023/06/28 01:55:55;;;;;;;22.95;15.55;;;;;;;18.81;88.90;94638.94;5015082;28;20164;-82
2023/06/28 01:58:20;;;;;;;39.25;25.92;;;;;;;18.66;89.00;94614.16;5014649;28;20263;-82
2023/06/28 02:00:45;;;;;;;20.10;14.32;;;;;;;18.89;89.04;94642.16;5015134;28;20165;-82
2023/06/28 02:03:11;;;;;;;43.45;29.02;;;;;;;18.81;88.98;94644.28;5014710;28;20199;-82
2023/06/28 02:05:36;;;;;;;51.27;32.67;;;;;;;18.78;89.14;94641.34;5014426;28;20642;-81
2023/06/28 02:08:02;;;;;;;44.28;29.52;;;;;;;18.80;89.49;94645.34;5014966;28;20400;-81
2023/06/28 02:10:27;;;;;;;41.40;29.20;;;;;;;18.87;89.24;94646.94;5014539;28;20565;-81
2023/06/28 02:12:53;;;;;;;42.00;29.67;;;;;;;18.83;89.22;94644.81;5014867;28;20263;-82
2023/06/28 02:15:19;;;;;;;39.70;29.05;;;;;;;18.91;88.30;94656.03;5014708;28;20160;-82
2023/06/28 02:17:44;;;;;;;30.25;22.80;;;;;;;18.85;88.47;94663.22;5013070;28;20258;-82
2023/06/28 02:20:10;;;;;;;24.63;18.88;;;;;;;18.66;88.39;94640.81;5014430;28;20414;-82
2023/06/28 02:22:36;;;;;;;17.52;14.10;;;;;;;18.77;88.96;94661.88;5014393;28;20193;-81
2023/06/28 02:25:01;;;;;;;14.70;12.55;;;;;;;18.85;88.58;94666.69;5014158;28;20231;-81
2023/06/28 02:27:26;;;;;;;14.25;11.00;;;;;;;18.48;88.99;94618.91;5028907;28;20311;-81
2023/06/28 02:29:52;;;;;;;14.40;11.97;;;;;;;18.79;89.60;94667.75;5012724;28;20422;-81
2023/06/28 02:32:17;;;;;;;14.07;9.80;;;;;;;18.91;89.01;94661.34;5013753;28;20212;-81
2023/06/28 02:34:43;;;;;;;13.57;10.50;;;;;;;18.90;87.74;94667.75;5013112;28;20478;-81
2023/06/28 02:37:08;;;;;;;12.68;9.30;;;;;;;18.72;88.30;94642.41;5013580;28;20200;-81
2023/06/28 02:39:34;;;;;;;15.15;11.25;;;;;;;19.00;88.40;94660.56;5013480;28;20183;-81
2023/06/28 02:42:00;;;;;;;12.70;9.80;;;;;;;19.21;87.62;94669.31;5013605;28;20481;-81
2023/06/28 02:44:53;;;;;;;11.25;9.68;;;;;;;19.39;87.48;94665.31;5014051;28;20175;-81
2023/06/28 02:47:19;;;;;;;11.23;8.35;;;;;;;19.22;87.36;94629.03;5014075;28;20192;-82
2023/06/28 02:49:44;;;;;;;9.70;8.70;;;;;;;19.53;86.58;94669.06;5013874;28;20163;-82
2023/06/28 02:52:10;;;;;;;13.35;8.05;;;;;;;19.60;86.78;94658.88;5013666;28;20687;-82
2023/06/28 02:54:35;;;;;;;11.82;7.72;;;;;;;19.62;85.83;94664.75;5013782;28;20181;-82
2023/06/28 02:57:01;;;;;;;12.43;8.48;;;;;;;19.60;86.00;94661.56;5013847;28;20152;-82
2023/06/28 02:59:26;;;;;;;13.18;8.85;;;;;;;19.31;85.75;94615.13;5013632;28;20703;-82
2023/06/28 03:01:52;;;;;;;13.25;8.68;;;;;;;19.55;86.27;94669.56;5013621;28;20193;-82
2023/06/28 03:04:17;;;;;;;9.80;8.35;;;;;;;19.37;86.50;94649.53;5012346;28;20655;-84
2023/06/28 03:06:47;;;;;;;12.35;8.07;;;;;;;19.39;86.84;94662.63;5012377;28;20200;-84
2023/06/28 03:09:12;;;;;;;10.38;8.93;;;;;;;19.32;87.02;94654.91;5011509;28;20230;-84
2023/06/28 03:11:38;;;;;;;12.82;9.15;;;;;;;18.99;87.49;94621.59;5012764;28;20173;-84
2023/06/28 03:14:03;;;;;;;12.55;10.02;;;;;;;19.31;87.82;94676.53;5012761;28;20711;-84
2023/06/28 03:16:29;;;;;;;12.05;8.85;;;;;;;19.08;87.41;94633.34;5028235;28;20172;-84
2023/06/28 03:18:54;;;;;;;14.38;10.02;;;;;;;19.35;87.43;94669.59;5013493;28;20243;-84
2023/06/28 03:21:19;;;;;;;15.65;9.55;;;;;;;19.38;87.42;94669.03;5013354;28;20179;-84
2023/06/28 03:23:45;;;;;;;11.02;9.00;;;;;;;19.08;88.03;94614.66;5013130;28;20620;-84
2023/06/28 03:26:10;;;;;;;14.25;9.18;;;;;;;19.34;88.22;94644.75;5011733;28;20279;-82
2023/06/28 03:28:36;;;;;;;10.95;9.32;;;;;;;19.45;87.95;94661.56;5013293;28;20165;-80
2023/06/28 03:31:01;;;;;;;12.57;9.90;;;;;;;19.55;87.43;94664.22;5012636;28;20201;-79
2023/06/28 03:33:26;;;;;;;15.15;10.73;;;;;;;19.53;86.90;94667.19;5012627;28;20215;-80
2023/06/28 03:35:52;;;;;;;27.73;17.13;;;;;;;19.47;87.50;94656.72;5012450;28;20172;-83
2023/06/28 03:38:17;;;;;;;24.10;16.73;;;;;;;19.63;87.76;94669.03;5012497;28;20715;-83
2023/06/28 03:40:42;;;;;;;25.58;18.13;;;;;;;19.55;87.52;94645.53;5012835;28;20168;-82
2023/06/28 03:43:08;;;;;;;20.27;14.63;;;;;;;19.82;86.92;94670.00;5012736;28;20664;-83
2023/06/28 03:45:33;;;;;;;27.50;17.17;;;;;;;19.96;87.40;94670.25;5012580;28;20164;-83
2023/06/28 03:47:59;;;;;;;23.88;16.38;;;;;;;19.77;86.67;94623.84;5012100;28;20667;-83
2023/06/28 03:50:24;;;;;;;33.22;22.48;;;;;;;20.15;86.40;94662.41;5012071;28;20211;-83
2023/06/28 03:52:50;;;;;;;24.98;17.35;;;;;;;20.30;85.25;94673.03;5012171;28;20644;-82
2023/06/28 03:55:16;;;;;;;18.05;12.98;;;;;;;20.40;85.82;94673.00;5012275;28;20171;-82
2023/06/28 03:57:41;;;;;;;44.25;28.45;;;;;;;20.37;85.62;94641.47;5012541;28;21109;-83
2023/06/28 04:00:12;;;;;;;30.23;16.83;;;;;;;20.63;84.84;94666.97;5012737;28;20220;-82
2023/06/28 04:02:38;;;;;;;25.70;11.63;;;;;;;20.58;83.94;94637.56;5012111;28;20295;-82
2023/06/28 04:05:04;;;;;;;32.47;17.20;;;;;;;20.63;83.73;94623.38;5011807;28;20282;-82
2023/06/28 04:07:30;;;;;;;17.60;12.20;;;;;;;20.97;83.54;94658.94;5012027;28;20687;-82
2023/06/28 04:09:55;;;;;;;19.77;14.52;;;;;;;20.97;82.82;94652.81;5012378;28;20176;-83
2023/06/28 04:12:21;;;;;;;27.13;16.35;;;;;;;21.23;82.40;94677.50;5012317;28;20195;-83
2023/06/28 04:14:46;;;;;;;16.48;12.75;;;;;;;21.17;81.96;94650.00;5012619;28;20542;-83
2023/06/28 04:17:12;;;;;;;15.05;11.57;;;;;;;21.24;81.77;94642.41;5012224;28;20168;-83
2023/06/28 04:19:37;;;;;;;15.90;11.77;;;;;;;21.37;81.65;94643.63;5012073;28;20173;-83
2023/06/28 04:22:03;;;;;;;16.55;11.60;;;;;;;21.65;80.52;94658.06;5012124;28;20173;-83
2023/06/28 04:24:28;;;;;;;21.10;11.60;;;;;;;21.73;79.46;94650.19;5012217;28;20226;-83
2023/06/28 04:26:53;;;;;;;17.60;11.13;;;;;;;22.10;80.05;94678.22;5012393;28;20192;-82
2023/06/28 04:29:19;;;;;;;12.95;11.32;;;;;;;22.07;78.82;94639.38;5027727;28;20632;-81
2023/06/28 04:31:44;;;;;;;14.55;10.80;;;;;;;22.47;nan;94682.84;5012143;28;20164;-81
2023/06/28 04:34:09;;;;;;;17.67;11.00;;;;;;;22.60;76.91;94674.06;5011965;28;20172;-80
2023/06/28 04:36:35;;;;;;;15.07;11.05;;;;;;;22.80;76.98;94676.50;5026593;28;20623;-81
2023/06/28 04:39:03;;;;;;;18.25;13.70;;;;;;;22.83;76.95;94649.03;5011463;28;20184;-81
2023/06/28 04:41:28;;;;;;;13.35;10.93;;;;;;;23.18;75.81;94673.72;5029977;28;20230;-81
2023/06/28 04:43:56;;;;;;;23.90;16.38;;;;;;;23.33;75.56;94671.63;5015852;28;20179;-81
2023/06/28 04:46:22;;;;;;;13.93;10.63;;;;;;;23.55;74.61;94675.56;5015337;28;20215;-81
2023/06/28 04:48:48;;;;;;;14.60;11.63;;;;;;;23.76;74.47;94690.22;5015369;28;20172;-81
2023/06/28 04:51:14;;;;;;;18.40;11.05;;;;;;;23.95;73.07;94684.78;5015465;28;20251;-82
2023/06/28 04:53:39;;;;;;;14.00;9.90;;;;;;;24.08;71.95;94690.13;5015515;28;20271;-81
2023/06/28 04:56:05;;;;;;;12.85;9.13;;;;;;;24.27;71.91;94703.53;5015124;28;20160;-82
2023/06/28 04:58:32;;;;;;;12.05;9.68;;;;;;;24.49;71.38;94704.66;5014916;28;20290;-82
2023/06/28 05:00:58;;;;;;;13.63;9.38;;;;;;;24.54;68.79;94680.34;5015342;28;20259;-82
2023/06/28 05:03:27;;;;;;;14.90;9.93;;;;;;;24.81;69.66;94709.91;5015283;28;20204;-81
2023/06/28 05:05:56;;;;;;;11.60;8.57;;;;;;;24.94;68.64;94714.47;5013007;28;20644;-82
2023/06/28 05:08:22;;;;;;;11.68;9.00;;;;;;;24.99;68.08;94716.28;5013997;28;20646;-82
2023/06/28 05:10:47;;;;;;;13.13;9.38;;;;;;;24.99;68.19;94713.59;5015443;28;20191;-81
2023/06/28 05:13:13;;;;;;;14.70;9.30;;;;;;;24.91;67.56;94709.69;5015663;28;20177;-82
2023/06/28 05:15:38;;;;;;;13.38;9.35;;;;;;;24.89;68.21;94703.00;5015697;28;20172;-82
2023/06/28 05:18:04;;;;;;;13.00;9.05;;;;;;;24.39;68.63;94703.78;5014209;28;20175;-82
2023/06/28 05:20:31;;;;;;;13.27;9.88;;;;;;;24.11;70.22;94707.59;5015194;28;20267;-82
2023/06/28 05:23:11;;;;;;;13.50;9.63;;;;;;;24.22;71.89;94700.91;5015074;28;20211;-82
2023/06/28 05:25:40;;;;;;;12.60;9.02;;;;;;;24.28;70.56;94707.00;5013165;28;20223;-81
2023/06/28 05:28:06;;;;;;;15.65;10.15;;;;;;;24.30;71.77;94700.22;5014892;28;20298;-82
2023/06/28 05:30:32;;;;;;;14.75;9.88;;;;;;;24.65;72.71;94695.19;5015140;28;20195;-82
2023/06/28 05:32:58;;;;;;;12.57;9.45;;;;;;;24.92;68.88;94676.28;5030045;28;20176;-82
2023/06/28 05:35:24;;;;;;;15.85;9.93;;;;;;;25.47;67.33;94694.88;5014499;28;20191;-82
2023/06/28 05:37:49;;;;;;;15.68;9.98;;;;;;;25.15;66.81;94666.31;5014675;28;20250;-82
2023/06/28 05:40:15;;;;;;;11.52;9.05;;;;;;;25.34;67.78;94701.94;5014852;28;20189;-82
2023/06/28 05:42:40;;;;;;;15.57;9.95;;;;;;;25.05;67.46;94696.19;5014490;28;20195;-82
2023/06/28 05:45:06;;;;;;;13.88;11.15;;;;;;;24.94;68.34;94692.94;5014605;28;20176;-82
2023/06/28 05:47:31;;;;;;;18.75;10.40;;;;;;;24.81;68.18;94707.22;5014965;28;20609;-82
2023/06/28 05:49:57;;;;;;;19.02;13.32;;;;;;;24.60;69.96;94681.81;5015254;28;20192;-82
2023/06/28 05:52:22;;;;;;;14.00;11.05;;;;;;;25.02;70.50;94708.38;5014531;28;20181;-82
2023/06/28 05:54:47;;;;;;;15.30;12.57;;;;;;;25.37;68.54;94678.97;5015380;28;20609;-82
2023/06/28 05:57:13;;;;;;;16.25;13.45;;;;;;;25.98;68.43;94709.78;5014758;28;20313;-82
2023/06/28 05:59:38;;;;;;;15.50;12.10;;;;;;;26.39;65.97;94718.38;5014909;28;20227;-82
2023/06/28 06:02:04;;;;;;;13.27;11.57;;;;;;;26.83;65.28;94713.84;5014466;28;20272;-82
2023/06/28 06:04:30;;;;;;;19.63;10.65;;;;;;;27.19;62.74;94714.38;5029479;28;20173;-82
2023/06/28 06:06:55;;;;;;;17.20;10.60;;;;;;;27.38;62.55;94704.03;5014391;28;20188;-82
2023/06/28 06:09:21;;;;;;;14.18;11.30;;;;;;;27.44;62.69;94685.72;5014901;28;20647;-82
2023/06/28 06:11:46;;;;;;;17.63;10.30;;;;;;;27.52;61.88;94673.28;5014734;28;20176;-82
2023/06/28 06:14:12;;;;;;;15.00;11.00;;;;;;;27.84;62.32;94694.41;5014818;28;20164;-82
2023/06/28 06:16:37;;;;;;;15.45;12.70;;;;;;;28.01;59.88;94694.34;5014420;28;20168;-82
2023/06/28 06:19:02;;;;;;;18.52;9.90;;;;;;;28.06;60.37;94699.56;5014194;28;20173;-82
2023/06/28 06:21:28;;;;;;;11.15;9.95;;;;;;;28.19;57.92;94705.94;5013687;28;20186;-82
2023/06/28 06:23:53;;;;;;;13.43;9.32;;;;;;;28.27;57.29;94707.81;5013698;28;20180;-82
2023/06/28 06:26:18;;;;;;;12.38;8.55;;;;;;;27.88;57.16;94668.28;5012262;28;20246;-83
2023/06/28 06:28:44;;;;;;;11.40;9.52;;;;;;;28.01;57.54;94699.75;5014160;28;20620;-82
2023/06/28 06:31:14;;;;;;;13.38;9.98;;;;;;;28.01;58.31;94698.97;5014385;28;20163;-83
2023/06/28 06:33:40;;;;;;;16.10;9.63;;;;;;;27.76;56.64;94655.41;5012607;28;20716;-84
2023/06/28 06:36:05;;;;;;;18.33;9.30;;;;;;;27.77;57.74;94661.63;5013712;28;20191;-84
2023/06/28 06:38:31;;;;;;;12.60;8.65;;;;;;;28.10;57.58;94703.25;5013808;28;20180;-84
2023/06/28 06:40:56;;;;;;;13.60;9.85;;;;;;;27.99;57.23;94674.13;5014198;28;20153;-83
2023/06/28 06:43:21;;;;;;;13.05;9.35;;;;;;;28.03;58.33;94680.47;5013987;28;20188;-83
2023/06/28 06:45:47;;;;;;;15.60;9.95;;;;;;;28.01;57.00;94702.47;5013577;28;20181;-81
2023/06/28 06:48:12;;;;;;;16.75;10.00;;;;;;;28.13;59.40;94691.72;5013361;28;20940;-82
2023/06/28 06:50:37;;;;;;;17.67;9.10;;;;;;;28.31;59.46;94691.69;5013202;28;20215;-82
2023/06/28 06:53:03;;;;;;;12.50;9.07;;;;;;;28.36;55.76;94696.94;5013355;28;20179;-82
2023/06/28 06:55:28;;;;;;;11.63;8.63;;;;;;;28.10;58.32;94662.63;5013234;28;20176;-82
2023/06/28 06:57:54;;;;;;;14.63;9.38;;;;;;;28.47;56.78;94692.72;5013008;28;20161;-82
2023/06/28 07:00:19;;;;;;;14.75;8.82;;;;;;;28.53;58.16;94700.34;5013694;28;20610;-83
2023/06/28 07:02:44;;;;;;;13.05;7.95;;;;;;;28.69;58.85;94705.97;5012773;28;20647;-83
2023/06/28 07:05:10;;;;;;;10.23;8.15;;;;;;;28.68;57.86;94673.78;5013538;28;20157;-87
2023/06/28 07:07:35;;;;;;;10.23;8.38;;;;;;;28.46;56.58;94662.13;5013224;28;20196;-89
2023/06/28 07:10:01;;;;;;;11.05;8.20;;;;;;;28.53;56.56;94678.66;5013492;28;20164;-87
2023/06/28 07:12:26;;;;;;;60.53;13.13;;;;;;;28.23;56.32;94666.25;5013888;28;20165;-93
2023/06/28 07:14:52;;;;;;;22.17;11.85;;;;;;;27.69;57.50;94644.31;5012467;28;20195;-92
2023/06/28 07:17:17;;;;;;;25.42;14.65;;;;;;;27.75;58.50;94663.88;5012938;28;20605;-93
2023/06/28 07:19:43;;;;;;;16.17;8.70;;;;;;;27.78;59.32;94657.81;5014491;28;20263;-93
2023/06/28 07:22:08;;;;;;;10.38;7.88;;;;;;;28.15;56.49;94697.63;5014498;28;20173;-92
2023/06/28 07:24:34;;;;;;;12.27;7.70;;;;;;;28.40;58.00;94705.97;5012515;28;20169;-87
2023/06/28 07:26:59;;;;;;;10.30;7.95;;;;;;;28.30;58.42;94660.31;5011737;28;20196;-87
2023/06/28 07:29:24;;;;;;;17.08;9.00;;;;;;;28.46;56.72;94667.53;5013628;28;20164;-82
2023/06/28 07:31:50;;;;;;;12.13;7.43;;;;;;;28.57;57.45;94654.41;5012849;28;20168;-80
2023/06/28 07:34:17;;;;;;;14.43;7.68;;;;;;;28.83;55.53;94697.63;5013299;28;20169;-81
2023/06/28 07:36:42;;;;;;;11.70;6.22;;;;;;;28.43;57.05;94702.63;5013119;28;20157;-82
2023/06/28 07:39:09;;;;;;;17.60;7.22;;;;;;;28.29;54.81;94705.53;5013114;28;20168;-82
2023/06/28 07:41:35;;;;;;;12.45;8.05;;;;;;;28.38;56.16;94705.50;5013369;28;20176;-80
2023/06/28 07:44:00;;;;;;;10.23;7.63;;;;;;;28.65;56.19;94710.44;5013352;28;20199;-83
2023/06/28 07:46:25;;;;;;;10.70;7.15;;;;;;;28.66;55.18;94676.81;5012778;28;20270;-76
2023/06/28 07:48:51;;;;;;;7.53;5.90;;;;;;;28.98;56.10;94698.94;5011849;28;20187;-77
2023/06/28 07:51:17;;;;;;;15.00;7.63;;;;;;;28.95;56.58;94707.75;5012261;28;20211;-78
2023/06/28 07:53:42;;;;;;;10.85;5.97;;;;;;;28.98;54.80;94705.16;5011896;28;20176;-79
2023/06/28 07:56:08;;;;;;;9.65;6.22;;;;;;;29.03;52.23;94688.69;5012305;28;20172;-78
2023/06/28 07:58:36;;;;;;;11.18;6.47;;;;;;;29.19;54.46;94707.88;5011892;28;20222;-78
2023/06/28 08:01:02;;;;;;;14.05;8.48;;;;;;;28.91;54.07;94694.03;5025035;28;20235;-78
2023/06/28 08:03:27;;;;;;;16.17;6.60;;;;;;;28.70;53.29;94707.56;5011974;28;20173;-79
2023/06/28 08:05:53;;;;;;;14.82;6.93;;;;;;;28.47;53.67;94696.22;5012025;28;20186;-79
2023/06/28 08:08:18;;;;;;;13.32;6.60;;;;;;;28.29;55.67;94677.66;5012073;28;20263;-78
2023/06/28 08:10:44;;;;;;;13.52;6.57;;;;;;;28.23;53.42;94681.69;5012093;28;20845;-78
2023/06/28 08:13:09;;;;;;;11.38;7.78;;;;;;;28.13;54.39;94699.84;5011884;28;20652;-78
2023/06/28 08:15:36;;;;;;;9.13;6.53;;;;;;;27.77;54.26;94675.16;5011827;28;20215;-82
2023/06/28 08:18:03;;;;;;;8.43;6.78;;;;;;;27.83;55.31;94694.72;5011802;28;20203;-83
2023/06/28 08:20:31;;;;;;;14.73;6.95;;;;;;;27.75;54.15;94707.16;5011843;28;20180;-83
2023/06/28 08:22:57;;;;;;;8.18;6.47;;;;;;;27.52;54.11;94636.22;5010111;28;20184;-83
2023/06/28 08:25:22;;;;;;;8.93;5.93;;;;;;;28.09;53.52;94681.91;5011573;28;20176;-83
2023/06/28 08:27:47;;;;;;;8.15;5.97;;;;;;;28.04;53.18;94644.16;5011795;28;20224;-83
2023/06/28 08:30:13;;;;;;;8.13;5.63;;;;;;;28.46;51.85;94683.78;5011554;28;20203;-84
2023/06/28 08:32:38;;;;;;;13.65;7.55;;;;;;;28.57;52.00;94678.00;5011846;28;20172;-83
2023/06/28 08:35:04;;;;;;;9.57;6.20;;;;;;;27.96;50.61;94582.75;5011662;28;20252;-83
2023/06/28 08:37:31;;;;;;;7.70;5.68;;;;;;;28.52;53.05;94639.16;5010775;28;20632;-83
2023/06/28 08:39:57;;;;;;;7.28;6.03;;;;;;;28.77;51.31;94650.94;5009507;28;20176;-83
2023/06/28 08:42:22;;;;;;;8.48;6.35;;;;;;;29.15;51.58;94685.22;5009542;28;20172;-83
2023/06/28 08:44:55;;;;;;;21.58;7.20;;;;;;;29.06;49.68;94657.44;5009316;28;20199;-83
2023/06/28 08:47:20;;;;;;;8.13;5.47;;;;;;;29.06;52.41;94685.31;5008383;28;20196;-83
2023/06/28 08:49:46;;;;;;;7.72;6.00;;;;;;;28.66;52.50;94617.19;5007427;28;20191;-83
2023/06/28 08:52:14;;;;;;;7.88;5.95;;;;;;;29.02;51.08;94676.25;5007572;28;20176;-82
2023/06/28 08:54:41;;;;;;;10.90;5.97;;;;;;;28.68;51.83;94631.22;5007502;28;20270;-83
2023/06/28 08:57:07;;;;;;;6.70;5.82;;;;;;;28.68;51.69;94633.94;5007537;28;20226;-83
2023/06/28 08:59:32;;;;;;;14.70;5.82;;;;;;;28.66;50.47;94629.97;5007481;28;20223;-84
2023/06/28 09:01:59;;;;;;;11.57;6.40;;;;;;;28.59;50.25;94638.63;5008081;28;20203;-84
2023/06/28 09:04:29;;;;;;;9.82;5.35;;;;;;;28.57;53.16;94627.31;5009447;28;20204;-84
2023/06/28 09:06:55;;;;;;;7.20;5.68;;;;;;;28.86;51.93;94654.38;5009553;28;20279;-84
2023/06/28 09:09:21;;;;;;;8.35;5.97;;;;;;;28.66;51.66;94617.19;5009445;28;20241;-84
2023/06/28 09:11:47;;;;;;;9.13;6.07;;;;;;;28.68;51.46;94628.50;5007915;28;20192;-84
2023/06/28 09:14:13;;;;;;;26.08;6.60;;;;;;;29.03;54.75;94661.59;5009274;28;20234;-84
2023/06/28 09:16:39;;;;;;;8.35;6.32;;;;;;;29.10;53.91;94663.75;5009148;28;20648;-83
2023/06/28 09:19:04;;;;;;;6.40;5.70;;;;;;;28.96;51.22;94622.59;5009029;28;20689;-83
2023/06/28 09:21:31;;;;;;;13.65;6.32;;;;;;;29.08;51.48;94623.41;5009079;28;20677;-84
2023/06/28 09:23:57;;;;;;;10.10;6.85;;;;;;;28.99;49.40;94611.06;5009121;28;20268;-84
2023/06/28 09:26:29;;;;;;;11.93;7.50;;;;;;;28.83;53.48;94608.16;5010469;28;20246;-83
2023/06/28 09:28:59;;;;;;;9.57;6.78;;;;;;;28.92;48.66;94625.16;5012434;28;20177;-84
2023/06/28 09:31:24;;;;;;;8.40;7.00;;;;;;;28.65;51.92;94610.19;5012611;28;20188;-83
2023/06/28 09:33:53;;;;;;;8.93;6.88;;;;;;;28.97;51.46;94652.06;5012632;28;20314;-80
2023/06/28 09:36:19;;;;;;;10.35;7.03;;;;;;;28.79;51.13;94646.00;5013967;28;20175;-83
2023/06/28 09:38:44;;;;;;;9.95;7.03;;;;;;;28.42;49.64;94585.34;5014735;28;20570;-84
2023/06/28 09:41:10;;;;;;;8.85;6.63;;;;;;;28.54;54.58;94638.81;5014888;28;20177;-83
2023/06/28 09:43:36;;;;;;;8.02;6.55;;;;;;;28.21;53.99;94589.94;5012871;28;20181;-84
2023/06/28 09:46:19;;;;;;;11.38;7.25;;;;;;;28.46;53.88;94648.56;5014378;28;20709;-84
2023/06/28 09:48:49;;;;;;;9.60;6.70;;;;;;;28.34;54.43;94645.00;5014109;28;20198;-84
2023/06/28 09:51:16;;;;;;;12.85;6.43;;;;;;;28.26;54.26;94635.00;5013887;28;20247;-81
2023/06/28 09:53:56;;;;;;;8.20;6.65;;;;;;;28.22;53.44;94645.69;5013054;28;20176;-79
2023/06/28 09:56:34;;;;;;;9.32;6.80;;;;;;;28.10;53.67;94648.28;5013402;28;20172;-80
2023/06/28 09:59:07;;;;;;;9.55;6.20;;;;;;;27.84;53.86;94602.41;5012191;28;20184;-80
2023/06/28 10:01:39;;;;;;;11.30;7.20;;;;;;;28.04;53.80;94622.50;5013942;28;20176;-81
2023/06/28 10:04:08;;;;;;;8.98;7.13;;;;;;;28.15;53.49;94640.75;5009382;28;20253;-80
2023/06/28 10:06:35;;;;;;;10.52;7.10;;;;;;;28.09;52.10;94617.72;5013703;28;20523;-81
2023/06/28 10:09:01;;;;;;;9.80;6.28;;;;;;;28.19;54.04;94637.44;5013720;28;20192;-80
2023/06/28 10:11:30;;;;;;;7.60;6.28;;;;;;;28.14;51.59;94631.06;5013654;28;20586;-80
2023/06/28 10:13:56;;;;;;;9.75;6.65;;;;;;;28.30;55.07;94635.94;5013867;28;20581;-81
2023/06/28 10:16:26;;;;;;;20.27;7.03;;;;;;;28.50;56.42;94622.41;5013341;28;20176;-81
2023/06/28 10:18:52;;;;;;;7.55;6.25;;;;;;;28.51;53.30;94606.97;5012222;28;20180;-82
2023/06/28 10:21:18;;;;;;;9.07;6.28;;;;;;;28.74;53.24;94632.59;5013899;28;20173;-81
2023/06/28 10:23:44;;;;;;;11.55;6.97;;;;;;;28.67;53.08;94618.78;5013907;28;20172;-82
2023/06/28 10:26:12;;;;;;;9.82;6.93;;;;;;;28.71;54.56;94625.16;5013622;28;20187;-79
2023/06/28 10:28:39;;;;;;;12.25;6.85;;;;;;;28.66;54.61;94611.78;5013239;28;20180;-80
2023/06/28 10:31:05;;;;;;;9.02;6.70;;;;;;;28.60;52.22;94613.13;5013231;28;20211;-81
2023/06/28 10:33:36;;;;;;;11.07;6.97;;;;;;;28.61;53.95;94625.53;5013535;28;20216;-81
2023/06/28 10:36:02;;;;;;;11.05;7.22;;;;;;;28.47;53.15;94620.38;5013923;28;20168;-79
2023/06/28 10:38:33;;;;;;;11.20;6.78;;;;;;;28.23;54.69;94624.81;5011855;28;20203;-79
2023/06/28 10:41:00;;;;;;;9.98;6.60;;;;;;;28.02;55.74;94612.00;5013076;28;20180;-79
2023/06/28 10:43:26;;;;;;;17.65;6.45;;;;;;;27.70;54.11;94599.09;5013428;28;20172;-81
2023/06/28 10:45:52;;;;;;;13.23;6.85;;;;;;;27.81;54.93;94624.69;5013595;28;20202;-81
2023/06/28 10:48:19;;;;;;;13.23;6.38;;;;;;;27.63;53.56;94620.47;5014087;28;20242;-81
2023/06/28 10:50:47;;;;;;;10.15;7.05;;;;;;;27.40;53.76;94614.47;5012848;28;20164;-81
2023/06/28 10:53:29;;;;;;;6.93;5.95;;;;;;;27.10;55.25;94600.06;5009722;28;20180;-81
2023/06/28 10:56:03;;;;;;;11.48;6.80;;;;;;;26.94;54.08;94624.09;5010403;28;20184;-81
2023/06/28 10:58:29;;;;;;;10.90;7.05;;;;;;;26.70;55.85;94572.44;5010997;28;20290;-81
2023/06/28 11:00:55;;;;;;;11.43;6.60;;;;;;;26.97;54.67;94623.44;5010767;28;20574;-81
2023/06/28 11:03:21;;;;;;;12.55;6.70;;;;;;;26.97;58.63;94596.44;5010834;28;20191;-81
2023/06/28 11:05:56;;;;;;;14.38;6.07;;;;;;;27.19;55.88;94608.94;5011002;28;20271;-81
2023/06/28 11:08:36;;;;;;;9.05;6.20;;;;;;;27.34;56.22;94619.22;5010896;28;20204;-80
2023/06/28 11:11:01;;;;;;;10.95;6.05;;;;;;;27.22;53.42;94604.81;5011040;28;20660;-81
2023/06/28 11:13:39;;;;;;;21.63;6.40;;;;;;;27.22;54.21;94623.72;5010905;28;20295;-81
2023/06/28 11:16:16;;;;;;;11.45;6.18;;;;;;;27.26;56.09;94616.56;5010702;28;20239;-81
2023/06/28 11:18:41;;;;;;;8.25;6.18;;;;;;;27.15;55.54;94608.00;5010946;28;20187;-81
2023/06/28 11:21:17;;;;;;;8.30;6.25;;;;;;;27.25;53.57;94599.53;5010680;28;20177;-81